Time;durP1;ratioP1;P1;durP2;ratioP2;P2;SDS_P1;SDS_P2;PMS_P1;PMS_P2;Temp;Humidity;BMP_temperature;BMP_pressure;BME280_temperature;BME280_humidity;BME280_pressure;Samples;Min_cycle;Max_cycle;Signal;HPM_P1;HPM_P2
2022/01/19 00:00:10;;;;;;;14.02;6.90;;;;;;;;;;5010854;28;20018;-86
2022/01/19 00:02:41;;;;;;;12.52;6.68;;;;;;;;;;5010836;28;20085;-85
2022/01/19 00:05:12;;;;;;;14.15;6.63;;;;;;;;;;5011423;28;20031;-85
2022/01/19 00:07:48;;;;;;;10.40;5.80;;;;;;;;;;5012462;28;20010;-86
2022/01/19 00:10:27;;;;;;;13.63;6.40;;;;;;;;;;4995790;28;20133;-86
2022/01/19 00:13:00;;;;;;;12.20;7.10;;;;;;;;;;5010300;28;20062;-85
2022/01/19 00:15:34;;;;;;;13.50;5.85;;;;;;;;;;5010134;28;20035;-86
2022/01/19 00:18:00;;;;;;;10.68;5.75;;;;;;;;;;5010918;28;20042;-86
2022/01/19 00:20:35;;;;;;;14.15;6.75;;;;;;;;;;5010338;28;20022;-86
2022/01/19 00:23:07;;;;;;;14.95;7.00;;;;;;;;;;5010779;28;20090;-86
2022/01/19 00:25:34;;;;;;;10.63;6.00;;;;;;;;;;5009906;28;20073;-86
2022/01/19 00:28:05;;;;;;;11.48;6.28;;;;;;;;;;5009340;28;20033;-86
2022/01/19 00:30:31;;;;;;;12.77;6.10;;;;;;;;;;5009817;28;20026;-86
2022/01/19 00:32:58;;;;;;;13.57;6.05;;;;;;;;;;5009636;28;20037;-86
2022/01/19 00:35:25;;;;;;;13.38;6.38;;;;;;;;;;5008939;28;20046;-86
2022/01/19 00:37:53;;;;;;;8.88;5.45;;;;;;;;;;5009503;28;20023;-86
2022/01/19 00:40:20;;;;;;;12.88;6.32;;;;;;;;;;5009423;28;20038;-86
2022/01/19 00:42:46;;;;;;;13.25;6.47;;;;;;;;;;5009695;28;20046;-85
2022/01/19 00:45:16;;;;;;;11.75;6.28;;;;;;;;;;5010734;28;20034;-84
2022/01/19 00:47:42;;;;;;;12.60;5.97;;;;;;;;;;5009910;28;20041;-85
2022/01/19 00:50:13;;;;;;;11.57;5.47;;;;;;;;;;5004395;28;20019;-85
2022/01/19 00:52:39;;;;;;;11.23;5.72;;;;;;;;;;4994408;28;20065;-85
2022/01/19 00:55:07;;;;;;;15.45;6.70;;;;;;;;;;5009342;28;20027;-85
2022/01/19 00:57:33;;;;;;;11.48;5.60;;;;;;;;;;5008755;28;20089;-86
2022/01/19 01:00:07;;;;;;;10.93;5.57;;;;;;;;;;5008487;28;20174;-86
2022/01/19 01:02:33;;;;;;;12.00;6.20;;;;;;;;;;5007021;28;20086;-85
2022/01/19 01:05:03;;;;;;;15.50;7.57;;;;;;;;;;5009140;28;20022;-87
2022/01/19 01:07:33;;;;;;;12.45;5.85;;;;;;;;;;4992782;28;20051;-87
2022/01/19 01:10:09;;;;;;;11.60;6.32;;;;;;;;;;5009385;28;20026;-86
2022/01/19 01:12:45;;;;;;;11.60;6.25;;;;;;;;;;5008878;28;20110;-86
2022/01/19 01:16:01;;;;;;;14.38;5.78;;;;;;;;;;5007969;28;20037;-86
2022/01/19 01:20:37;;;;;;;11.70;6.53;;;;;;;;;;4998800;28;20571;-86
2022/01/19 01:23:04;;;;;;;13.13;6.03;;;;;;;;;;5007989;28;20026;-86
2022/01/19 01:25:30;;;;;;;11.38;5.75;;;;;;;;;;5005819;28;20034;-86
2022/01/19 01:27:56;;;;;;;14.55;6.20;;;;;;;;;;5010799;28;20014;-86
2022/01/19 01:30:22;;;;;;;10.05;6.05;;;;;;;;;;5011167;28;20026;-87
2022/01/19 01:32:58;;;;;;;14.93;6.32;;;;;;;;;;5010583;28;20041;-86
2022/01/19 01:35:24;;;;;;;11.13;6.45;;;;;;;;;;5011681;28;20026;-86
2022/01/19 01:37:51;;;;;;;12.95;6.85;;;;;;;;;;5011074;28;20187;-85
2022/01/19 01:40:19;;;;;;;11.85;6.45;;;;;;;;;;5011320;28;20119;-86
2022/01/19 01:42:45;;;;;;;14.82;6.88;;;;;;;;;;5010254;28;20104;-85
2022/01/19 01:45:17;;;;;;;13.80;5.57;;;;;;;;;;5010274;28;20073;-86
2022/01/19 01:47:48;;;;;;;11.13;6.20;;;;;;;;;;5011701;28;20073;-86
2022/01/19 01:55:46;;;;;;;13.73;6.85;;;;;;;;;;4975603;28;20095;-87
2022/01/19 01:58:12;;;;;;;14.48;6.60;;;;;;;;;;4970036;29;20481;-85
2022/01/19 02:00:41;;;;;;;14.45;6.60;;;;;;;;;;4974391;28;20057;-86
2022/01/19 02:03:09;;;;;;;13.15;6.45;;;;;;;;;;4973791;28;20053;-86
2022/01/19 02:05:45;;;;;;;13.55;6.85;;;;;;;;;;4961293;29;20098;-86
2022/01/19 02:08:20;;;;;;;11.68;6.25;;;;;;;;;;4959576;28;20106;-86
2022/01/19 02:21:57;;;;;;;14.23;6.10;;;;;;;;;;4985282;28;20046;-87
2022/01/19 02:24:28;;;;;;;11.80;7.10;;;;;;;;;;4971140;28;20444;-86
2022/01/19 02:28:54;;;;;;;15.48;6.65;;;;;;;;;;4994964;28;20045;-86
2022/01/19 02:30:46;;;;;;;15.68;7.47;;;;;;;;;;4989940;28;20034;-86
2022/01/19 02:40:59;;;;;;;16.48;7.85;;;;;;;;;;5007355;28;20396;-87
2022/01/19 02:43:28;;;;;;;12.20;6.93;;;;;;;;;;5004788;28;20039;-87
2022/01/19 02:51:25;;;;;;;12.50;6.47;;;;;;;;;;5006969;28;20084;-87
2022/01/19 02:53:51;;;;;;;12.55;7.30;;;;;;;;;;5007550;28;20334;-87
2022/01/19 02:56:25;;;;;;;11.50;5.75;;;;;;;;;;5005899;28;20030;-86
2022/01/19 02:58:57;;;;;;;12.93;6.97;;;;;;;;;;5008175;28;20022;-86
2022/01/19 03:09:24;;;;;;;11.80;6.25;;;;;;;;;;5005022;28;20082;-86
2022/01/19 03:11:50;;;;;;;17.23;6.63;;;;;;;;;;5004675;28;20034;-86
2022/01/19 03:14:17;;;;;;;13.45;6.72;;;;;;;;;;5005187;28;20030;-86
2022/01/19 03:16:44;;;;;;;13.10;6.35;;;;;;;;;;5004737;28;20122;-86
2022/01/19 03:19:11;;;;;;;15.18;7.43;;;;;;;;;;5005958;28;20026;-86
2022/01/19 03:21:37;;;;;;;11.43;6.75;;;;;;;;;;5004564;28;20243;-86
2022/01/19 03:24:04;;;;;;;13.15;7.55;;;;;;;;;;5004236;28;20057;-86
2022/01/19 03:26:31;;;;;;;12.85;6.57;;;;;;;;;;5002325;28;20093;-87
2022/01/19 03:28:57;;;;;;;12.93;6.63;;;;;;;;;;5004487;28;20038;-86
2022/01/19 03:31:23;;;;;;;14.20;7.22;;;;;;;;;;5002654;28;20040;-87
2022/01/19 03:33:50;;;;;;;12.68;6.90;;;;;;;;;;5003629;28;20038;-86
2022/01/19 03:36:17;;;;;;;12.45;6.22;;;;;;;;;;5003974;28;20090;-86
2022/01/19 03:38:43;;;;;;;12.50;5.93;;;;;;;;;;5003428;28;20086;-86
2022/01/19 03:41:09;;;;;;;13.50;7.00;;;;;;;;;;5002678;28;20046;-86
2022/01/19 03:43:36;;;;;;;13.85;7.30;;;;;;;;;;5005028;28;20042;-87
2022/01/19 03:46:05;;;;;;;16.85;8.50;;;;;;;;;;5005611;28;20041;-87
2022/01/19 03:51:03;;;;;;;12.98;7.10;;;;;;;;;;5005242;28;20038;-86
2022/01/19 03:53:29;;;;;;;11.23;7.28;;;;;;;;;;5005065;28;20030;-86
2022/01/19 03:55:55;;;;;;;13.68;7.60;;;;;;;;;;5005507;28;20045;-86
2022/01/19 03:58:22;;;;;;;15.07;7.78;;;;;;;;;;5006268;28;20024;-87
2022/01/19 04:00:53;;;;;;;17.60;9.38;;;;;;;;;;5006211;28;20029;-87
2022/01/19 04:03:27;;;;;;;14.68;7.72;;;;;;;;;;5003372;28;20053;-87
2022/01/19 04:05:59;;;;;;;17.67;9.43;;;;;;;;;;5004173;28;20030;-87
2022/01/19 04:08:25;;;;;;;15.50;8.68;;;;;;;;;;4995392;28;20117;-87
2022/01/19 04:10:52;;;;;;;17.98;9.07;;;;;;;;;;5005112;28;20050;-87
2022/01/19 04:15:51;;;;;;;15.15;8.23;;;;;;;;;;5005578;28;20033;-87
2022/01/19 04:18:17;;;;;;;15.65;8.07;;;;;;;;;;5006196;28;20464;-87
2022/01/19 04:20:47;;;;;;;12.43;8.52;;;;;;;;;;5006283;28;20027;-88
2022/01/19 04:23:14;;;;;;;13.50;9.13;;;;;;;;;;5011261;28;20006;-86
2022/01/19 04:25:43;;;;;;;15.32;9.13;;;;;;;;;;5016727;28;20041;-87
2022/01/19 04:28:09;;;;;;;14.73;9.23;;;;;;;;;;5016190;28;20007;-87
2022/01/19 04:30:37;;;;;;;15.35;9.43;;;;;;;;;;5013934;28;20082;-86
2022/01/19 04:33:08;;;;;;;13.50;8.90;;;;;;;;;;5010816;28;20054;-87
2022/01/19 04:35:45;;;;;;;11.82;8.40;;;;;;;;;;5009902;28;20025;-87
2022/01/19 04:38:54;;;;;;;18.80;10.05;;;;;;;;;;5008442;28;20050;-87
2022/01/19 05:02:36;;;;;;;12.25;6.90;;;;;;;;;;5010914;28;20069;-86
2022/01/19 05:05:14;;;;;;;16.63;8.07;;;;;;;;;;5009077;28;20090;-86
2022/01/19 05:08:12;;;;;;;12.10;6.20;;;;;;;;;;5000365;28;20030;-86
2022/01/19 05:15:49;;;;;;;15.95;9.40;;;;;;;;;;5004900;28;20038;-86
2022/01/19 05:18:17;;;;;;;17.15;8.18;;;;;;;;;;5007866;28;20026;-86
2022/01/19 05:20:45;;;;;;;23.52;11.73;;;;;;;;;;5007124;28;20045;-87
2022/01/19 05:23:11;;;;;;;18.33;9.50;;;;;;;;;;5008872;28;20018;-88
2022/01/19 05:25:37;;;;;;;18.23;9.48;;;;;;;;;;5002515;28;20025;-86
2022/01/19 05:28:03;;;;;;;17.67;8.25;;;;;;;;;;5009933;28;20061;-86
2022/01/19 05:30:30;;;;;;;17.20;8.73;;;;;;;;;;5008057;28;20034;-85
2022/01/19 05:32:56;;;;;;;17.73;8.90;;;;;;;;;;5005552;28;20085;-85
2022/01/19 05:35:22;;;;;;;15.18;8.25;;;;;;;;;;5006256;28;20508;-86
2022/01/19 05:37:48;;;;;;;19.02;9.60;;;;;;;;;;5007278;28;20035;-86
2022/01/19 05:40:14;;;;;;;17.23;9.77;;;;;;;;;;5005455;28;20045;-86
2022/01/19 05:42:41;;;;;;;17.50;9.32;;;;;;;;;;5005784;28;20038;-87
2022/01/19 05:45:09;;;;;;;20.90;10.43;;;;;;;;;;5005701;28;20019;-86
2022/01/19 05:47:35;;;;;;;16.33;8.85;;;;;;;;;;5006035;28;20053;-86
2022/01/19 05:50:01;;;;;;;19.20;9.75;;;;;;;;;;5006818;28;20119;-85
2022/01/19 05:52:28;;;;;;;17.00;8.90;;;;;;;;;;5005675;28;20058;-87
2022/01/19 05:54:54;;;;;;;16.33;8.38;;;;;;;;;;5005944;28;20499;-85
2022/01/19 05:57:20;;;;;;;21.90;11.60;;;;;;;;;;5008172;28;20030;-85
2022/01/19 05:59:46;;;;;;;20.75;10.77;;;;;;;;;;5008086;28;20049;-85
2022/01/19 06:02:13;;;;;;;20.58;11.05;;;;;;;;;;5006520;28;20106;-85
2022/01/19 06:04:39;;;;;;;23.60;11.63;;;;;;;;;;5003935;28;20030;-85
2022/01/19 06:07:09;;;;;;;20.23;12.30;;;;;;;;;;5006238;28;20037;-82
2022/01/19 06:09:48;;;;;;;21.00;11.65;;;;;;;;;;5004009;28;20033;-84
2022/01/19 06:12:16;;;;;;;19.02;11.27;;;;;;;;;;5003305;28;20022;-83
2022/01/19 06:14:44;;;;;;;21.33;10.68;;;;;;;;;;5002337;28;20132;-83
2022/01/19 06:17:11;;;;;;;18.73;9.95;;;;;;;;;;5003162;28;20057;-83
2022/01/19 06:19:40;;;;;;;18.52;10.82;;;;;;;;;;5004037;28;20472;-84
2022/01/19 06:22:09;;;;;;;20.55;11.13;;;;;;;;;;5003773;28;20084;-83
2022/01/19 06:24:37;;;;;;;22.20;11.60;;;;;;;;;;5001243;28;20515;-83
2022/01/19 06:27:04;;;;;;;18.75;10.77;;;;;;;;;;5005721;28;20045;-82
2022/01/19 06:29:30;;;;;;;20.20;11.35;;;;;;;;;;5004641;28;20037;-83
2022/01/19 06:31:57;;;;;;;20.63;11.35;;;;;;;;;;5005206;28;20037;-81
2022/01/19 06:34:24;;;;;;;19.13;10.88;;;;;;;;;;5000386;28;20601;-82
2022/01/19 06:36:52;;;;;;;22.50;11.98;;;;;;;;;;5004142;28;20034;-81
2022/01/19 06:39:19;;;;;;;18.80;11.40;;;;;;;;;;5003744;28;20041;-82
2022/01/19 06:41:45;;;;;;;23.85;13.10;;;;;;;;;;5003877;28;20022;-82
2022/01/19 06:44:15;;;;;;;23.20;13.02;;;;;;;;;;5000334;28;20050;-82
2022/01/19 06:46:42;;;;;;;26.63;13.98;;;;;;;;;;4990067;28;20089;-82
2022/01/19 06:49:08;;;;;;;22.83;13.25;;;;;;;;;;4998880;28;20392;-84
2022/01/19 06:51:35;;;;;;;29.42;13.52;;;;;;;;;;5003571;28;20023;-83
2022/01/19 06:54:01;;;;;;;19.27;11.50;;;;;;;;;;5002451;28;20026;-82
2022/01/19 06:56:32;;;;;;;24.02;11.05;;;;;;;;;;5004954;28;20042;-82
2022/01/19 06:59:02;;;;;;;15.75;8.75;;;;;;;;;;4999779;28;20015;-83
2022/01/19 07:01:32;;;;;;;18.95;9.77;;;;;;;;;;4996715;28;20022;-81
2022/01/19 07:03:58;;;;;;;21.92;9.30;;;;;;;;;;5000939;28;20033;-82
2022/01/19 07:06:24;;;;;;;15.70;9.32;;;;;;;;;;5004523;28;20030;-81
2022/01/19 07:08:50;;;;;;;17.10;10.05;;;;;;;;;;5005613;28;20033;-82
2022/01/19 07:11:17;;;;;;;17.00;9.65;;;;;;;;;;5003967;28;20026;-85
2022/01/19 07:13:44;;;;;;;16.95;10.75;;;;;;;;;;5003394;28;20054;-82
2022/01/19 07:16:10;;;;;;;20.95;11.05;;;;;;;;;;4994232;28;20102;-83
2022/01/19 07:18:36;;;;;;;17.52;9.38;;;;;;;;;;5002673;28;20058;-82
2022/01/19 07:21:02;;;;;;;17.27;10.23;;;;;;;;;;5004118;28;20018;-82
2022/01/19 07:23:29;;;;;;;16.85;10.20;;;;;;;;;;5003784;28;20081;-83
2022/01/19 07:25:55;;;;;;;14.00;9.20;;;;;;;;;;5005391;28;20026;-82
2022/01/19 07:28:21;;;;;;;18.63;9.82;;;;;;;;;;5003607;28;20117;-83
2022/01/19 07:30:48;;;;;;;17.35;9.90;;;;;;;;;;5003467;28;20511;-83
2022/01/19 07:33:15;;;;;;;16.48;9.35;;;;;;;;;;5005465;28;20122;-82
2022/01/19 07:35:41;;;;;;;15.57;9.70;;;;;;;;;;5001784;28;20046;-82
2022/01/19 07:38:07;;;;;;;17.17;10.50;;;;;;;;;;5002921;28;20469;-82
2022/01/19 07:40:34;;;;;;;14.60;9.43;;;;;;;;;;5003143;28;20026;-82
2022/01/19 07:43:00;;;;;;;15.15;10.00;;;;;;;;;;5005493;28;20050;-81
2022/01/19 07:45:26;;;;;;;14.95;9.45;;;;;;;;;;5002868;28;20267;-83
2022/01/19 07:47:52;;;;;;;14.63;9.88;;;;;;;;;;5005447;28;20031;-82
2022/01/19 07:50:18;;;;;;;15.65;9.43;;;;;;;;;;5002200;28;20048;-80
2022/01/19 07:52:45;;;;;;;16.95;10.40;;;;;;;;;;5002619;28;20034;-81
2022/01/19 07:55:11;;;;;;;16.27;9.95;;;;;;;;;;5004551;28;20040;-82
2022/01/19 07:57:40;;;;;;;16.45;9.95;;;;;;;;;;5002909;28;20493;-81
2022/01/19 08:00:07;;;;;;;14.57;9.70;;;;;;;;;;5002594;28;20022;-81
2022/01/19 08:02:34;;;;;;;16.40;9.63;;;;;;;;;;5002906;28;20026;-81
2022/01/19 08:05:00;;;;;;;12.73;9.52;;;;;;;;;;5002828;28;20077;-81
2022/01/19 08:07:26;;;;;;;14.40;9.52;;;;;;;;;;5001790;28;20027;-82
2022/01/19 08:09:53;;;;;;;16.83;9.88;;;;;;;;;;5004251;28;20026;-81
2022/01/19 08:12:20;;;;;;;15.70;10.48;;;;;;;;;;5005965;28;20085;-82
2022/01/19 08:14:46;;;;;;;19.10;9.93;;;;;;;;;;5006509;28;20428;-83
2022/01/19 08:17:13;;;;;;;14.77;9.35;;;;;;;;;;5005682;28;20026;-80
2022/01/19 08:19:39;;;;;;;16.58;9.40;;;;;;;;;;5003441;28;20053;-81
2022/01/19 08:22:05;;;;;;;16.85;10.10;;;;;;;;;;5001143;28;20034;-81
2022/01/19 08:24:32;;;;;;;13.82;9.63;;;;;;;;;;5003143;28;20029;-83
2022/01/19 08:27:00;;;;;;;16.75;10.20;;;;;;;;;;5002255;28;20052;-82
2022/01/19 08:29:26;;;;;;;17.27;10.93;;;;;;;;;;5002152;28;20144;-82
2022/01/19 08:31:52;;;;;;;14.93;10.63;;;;;;;;;;5002391;28;20027;-81
2022/01/19 08:34:21;;;;;;;16.10;9.27;;;;;;;;;;5002356;28;20062;-82
2022/01/19 08:36:48;;;;;;;16.10;10.02;;;;;;;;;;5002354;28;20027;-81
2022/01/19 08:39:14;;;;;;;17.63;10.27;;;;;;;;;;5001979;28;20019;-82
2022/01/19 08:41:41;;;;;;;20.63;10.00;;;;;;;;;;5003660;28;20078;-82
2022/01/19 08:44:10;;;;;;;18.17;10.77;;;;;;;;;;5003541;28;20042;-82
2022/01/19 08:46:44;;;;;;;19.52;11.43;;;;;;;;;;5003906;28;20057;-82
2022/01/19 08:49:10;;;;;;;21.30;10.90;;;;;;;;;;5002004;28;20030;-82
2022/01/19 08:51:36;;;;;;;13.25;9.93;;;;;;;;;;5004417;28;20077;-81
2022/01/19 08:54:03;;;;;;;18.88;10.00;;;;;;;;;;4998515;28;20030;-82
2022/01/19 08:56:31;;;;;;;18.75;11.55;;;;;;;;;;5002529;28;20191;-82
2022/01/19 08:58:58;;;;;;;17.85;9.18;;;;;;;;;;5003623;28;20022;-82
2022/01/19 09:01:25;;;;;;;16.23;9.07;;;;;;;;;;5002163;28;20023;-83
2022/01/19 09:03:57;;;;;;;17.17;9.20;;;;;;;;;;5002596;28;20088;-82
2022/01/19 09:06:24;;;;;;;13.20;8.93;;;;;;;;;;5002662;28;20126;-82
2022/01/19 09:08:54;;;;;;;18.67;10.30;;;;;;;;;;5003076;28;20023;-82
2022/01/19 09:11:20;;;;;;;16.33;9.85;;;;;;;;;;5002657;28;20034;-84
2022/01/19 09:13:47;;;;;;;18.17;10.70;;;;;;;;;;5001815;28;20488;-84
2022/01/19 09:16:13;;;;;;;17.75;10.68;;;;;;;;;;5002120;28;20137;-84
2022/01/19 09:18:39;;;;;;;16.95;10.40;;;;;;;;;;5003827;28;20034;-84
2022/01/19 09:21:05;;;;;;;18.63;10.70;;;;;;;;;;5002444;28;20031;-84
2022/01/19 09:23:31;;;;;;;16.45;9.60;;;;;;;;;;5002264;28;20022;-84
2022/01/19 09:25:57;;;;;;;16.75;10.82;;;;;;;;;;5002401;28;20030;-84
2022/01/19 09:28:24;;;;;;;19.63;11.40;;;;;;;;;;5003268;28;20041;-84
2022/01/19 09:30:50;;;;;;;16.25;10.13;;;;;;;;;;5002866;28;20035;-84
2022/01/19 09:33:20;;;;;;;18.35;10.65;;;;;;;;;;5002941;28;20041;-84
2022/01/19 09:38:27;;;;;;;16.52;10.65;;;;;;;;;;5004690;28;20094;-85
2022/01/19 09:40:54;;;;;;;16.75;10.90;;;;;;;;;;5004500;28;20054;-85
2022/01/19 09:43:23;;;;;;;18.95;11.82;;;;;;;;;;5004254;28;20054;-84
2022/01/19 09:45:56;;;;;;;21.02;11.82;;;;;;;;;;5004337;28;20500;-84
2022/01/19 09:48:23;;;;;;;14.30;10.75;;;;;;;;;;5006989;28;20037;-85
2022/01/19 09:50:49;;;;;;;15.77;10.68;;;;;;;;;;5001934;28;20035;-85
2022/01/19 09:53:16;;;;;;;17.88;11.48;;;;;;;;;;5007786;28;20038;-85
2022/01/19 09:55:48;;;;;;;21.75;10.60;;;;;;;;;;5007597;28;20030;-86
2022/01/19 09:58:17;;;;;;;17.13;10.45;;;;;;;;;;5008602;28;20033;-85
2022/01/19 10:00:44;;;;;;;15.63;9.65;;;;;;;;;;5008628;28;20083;-84
2022/01/19 10:03:14;;;;;;;15.27;9.13;;;;;;;;;;5007745;28;20014;-84
2022/01/19 10:05:59;;;;;;;13.75;7.97;;;;;;;;;;5009552;28;20053;-85
2022/01/19 10:08:28;;;;;;;16.65;8.43;;;;;;;;;;5008263;28;20026;-85
2022/01/19 10:17:03;;;;;;;16.50;9.32;;;;;;;;;;4990781;28;20061;-84
2022/01/19 10:19:49;;;;;;;15.68;8.70;;;;;;;;;;4990218;28;20085;-84
2022/01/19 10:22:20;;;;;;;13.18;8.02;;;;;;;;;;5008954;28;20038;-85
2022/01/19 10:25:03;;;;;;;19.95;9.75;;;;;;;;;;5012233;28;20022;-85
2022/01/19 10:27:36;;;;;;;15.13;9.70;;;;;;;;;;5012171;28;20026;-85
2022/01/19 10:30:05;;;;;;;18.63;10.18;;;;;;;;;;5016571;28;20077;-84
2022/01/19 10:32:31;;;;;;;17.85;9.57;;;;;;;;;;5016094;28;20030;-84
2022/01/19 10:34:57;;;;;;;20.15;9.85;;;;;;;;;;5012682;28;20026;-84
2022/01/19 10:37:28;;;;;;;17.92;10.35;;;;;;;;;;5009898;28;20050;-83
2022/01/19 10:39:57;;;;;;;15.20;8.93;;;;;;;;;;5009102;28;20501;-84
2022/01/19 10:42:30;;;;;;;15.98;8.60;;;;;;;;;;5009123;28;20030;-84
2022/01/19 10:44:58;;;;;;;17.40;8.70;;;;;;;;;;5008844;28;20516;-84
2022/01/19 10:47:42;;;;;;;13.18;7.05;;;;;;;;;;5009588;28;20026;-85
2022/01/19 10:50:10;;;;;;;12.80;9.15;;;;;;;;;;5008487;28;20023;-84
2022/01/19 10:52:39;;;;;;;11.80;7.50;;;;;;;;;;4991498;28;20031;-84
2022/01/19 10:55:08;;;;;;;22.83;8.60;;;;;;;;;;4990698;28;20029;-84
2022/01/19 10:57:36;;;;;;;16.08;8.43;;;;;;;;;;5002663;28;20023;-85
2022/01/19 11:00:21;;;;;;;12.43;8.13;;;;;;;;;;5001542;28;20405;-84
2022/01/19 11:02:50;;;;;;;16.92;8.63;;;;;;;;;;4997703;28;20030;-84
2022/01/19 11:05:20;;;;;;;11.23;6.85;;;;;;;;;;5007261;28;20106;-85
2022/01/19 11:07:46;;;;;;;10.98;6.30;;;;;;;;;;5007439;28;20050;-85
2022/01/19 11:10:22;;;;;;;15.60;7.22;;;;;;;;;;5006665;28;20022;-85
2022/01/19 11:12:52;;;;;;;12.60;7.15;;;;;;;;;;5009757;28;20037;-85
2022/01/19 11:15:19;;;;;;;13.32;7.25;;;;;;;;;;5011826;28;20100;-84
2022/01/19 11:17:46;;;;;;;12.60;6.68;;;;;;;;;;5011445;28;20031;-84
2022/01/19 11:20:18;;;;;;;13.25;7.45;;;;;;;;;;5009133;28;20036;-84
2022/01/19 11:23:05;;;;;;;9.13;6.47;;;;;;;;;;5008209;28;20086;-84
2022/01/19 11:25:35;;;;;;;16.50;7.60;;;;;;;;;;4995024;28;20034;-84
2022/01/19 11:28:01;;;;;;;12.48;6.82;;;;;;;;;;5007948;28;20080;-85
2022/01/19 11:30:29;;;;;;;11.55;6.10;;;;;;;;;;5007438;28;20137;-85
2022/01/19 11:33:11;;;;;;;13.00;6.65;;;;;;;;;;5009521;28;20056;-85
2022/01/19 11:35:37;;;;;;;12.82;6.50;;;;;;;;;;5009078;28;20555;-85
2022/01/19 11:38:31;;;;;;;11.88;7.25;;;;;;;;;;5007588;28;20053;-85
2022/01/19 11:40:59;;;;;;;17.25;8.40;;;;;;;;;;4970839;28;20037;-84
2022/01/19 11:43:28;;;;;;;17.33;8.73;;;;;;;;;;4956293;29;20039;-84
2022/01/19 11:45:56;;;;;;;16.95;9.35;;;;;;;;;;4940192;29;20032;-85
2022/01/19 11:48:24;;;;;;;13.05;7.85;;;;;;;;;;4966742;29;20407;-84
2022/01/19 11:50:52;;;;;;;12.70;8.05;;;;;;;;;;4955724;29;20067;-84
2022/01/19 11:53:19;;;;;;;12.15;7.70;;;;;;;;;;4960662;29;20035;-83
2022/01/19 11:56:21;;;;;;;15.82;8.40;;;;;;;;;;4941867;29;20043;-83
2022/01/19 11:59:08;;;;;;;11.35;7.40;;;;;;;;;;4913995;29;20047;-86
2022/01/19 12:01:34;;;;;;;12.73;7.90;;;;;;;;;;4911022;29;20060;-86
2022/01/19 12:04:29;;;;;;;13.27;8.10;;;;;;;;;;4923381;29;20032;-84
2022/01/19 12:06:55;;;;;;;12.95;8.65;;;;;;;;;;4876056;29;20068;-84
2022/01/19 12:09:21;;;;;;;13.93;8.35;;;;;;;;;;4856916;29;20044;-84
2022/01/19 12:11:51;;;;;;;20.00;9.10;;;;;;;;;;4850778;29;20452;-84
2022/01/19 12:14:28;;;;;;;14.82;9.48;;;;;;;;;;4871866;29;20472;-84
2022/01/19 12:17:08;;;;;;;14.50;9.70;;;;;;;;;;4874974;29;20060;-83
2022/01/19 12:19:40;;;;;;;26.67;10.48;;;;;;;;;;4890633;29;20123;-84
2022/01/19 12:22:28;;;;;;;13.48;9.38;;;;;;;;;;4875741;29;20423;-83
2022/01/19 12:25:00;;;;;;;13.57;8.35;;;;;;;;;;4870025;29;20047;-85
2022/01/19 12:27:28;;;;;;;18.13;8.70;;;;;;;;;;4888254;29;20138;-84
2022/01/19 12:30:17;;;;;;;15.48;8.60;;;;;;;;;;4888546;29;20052;-85
2022/01/19 12:32:46;;;;;;;14.55;8.75;;;;;;;;;;4926948;29;20046;-85
2022/01/19 12:35:13;;;;;;;14.80;8.95;;;;;;;;;;4947861;29;20062;-84
2022/01/19 12:37:44;;;;;;;13.88;8.80;;;;;;;;;;4946923;28;20043;-84
2022/01/19 12:40:13;;;;;;;13.38;8.55;;;;;;;;;;4948269;29;20034;-85
2022/01/19 12:42:42;;;;;;;11.00;8.20;;;;;;;;;;4957483;28;20029;-83
2022/01/19 12:45:19;;;;;;;16.00;9.15;;;;;;;;;;5005396;28;20027;-83
2022/01/19 12:47:56;;;;;;;17.40;9.18;;;;;;;;;;5003794;28;20034;-83
2022/01/19 12:50:22;;;;;;;14.13;9.30;;;;;;;;;;5004027;28;20126;-83
2022/01/19 12:52:52;;;;;;;18.50;8.95;;;;;;;;;;5003245;28;20352;-84
2022/01/19 12:55:29;;;;;;;25.85;10.13;;;;;;;;;;5003389;28;20027;-83
2022/01/19 12:57:57;;;;;;;17.48;9.32;;;;;;;;;;5004102;28;20022;-83
2022/01/19 13:00:27;;;;;;;15.70;8.85;;;;;;;;;;5002742;28;20030;-84
2022/01/19 13:02:53;;;;;;;16.02;8.77;;;;;;;;;;5002680;28;20030;-84
2022/01/19 13:05:21;;;;;;;13.25;7.97;;;;;;;;;;5003379;28;20028;-84
2022/01/19 13:07:57;;;;;;;15.38;7.63;;;;;;;;;;5004632;28;20480;-84
2022/01/19 13:10:49;;;;;;;15.88;8.68;;;;;;;;;;5004454;28;20396;-84
2022/01/19 13:15:54;;;;;;;16.73;7.75;;;;;;;;;;5005648;28;20094;-85
2022/01/19 13:18:43;;;;;;;14.40;8.38;;;;;;;;;;4992217;28;20019;-86
2022/01/19 13:21:15;;;;;;;31.85;11.45;;;;;;;;;;5005623;28;20022;-85
2022/01/19 13:23:58;;;;;;;14.00;7.97;;;;;;;;;;5009364;28;20054;-85
2022/01/19 13:26:24;;;;;;;13.05;8.18;;;;;;;;;;4988519;28;20266;-85
2022/01/19 13:28:52;;;;;;;18.10;7.65;;;;;;;;;;5006250;28;20042;-86
2022/01/19 13:31:22;;;;;;;16.95;9.05;;;;;;;;;;5008240;28;20034;-85
2022/01/19 13:33:56;;;;;;;15.27;9.77;;;;;;;;;;5007325;28;20026;-85
2022/01/19 13:36:29;;;;;;;16.35;9.82;;;;;;;;;;5007772;28;20034;-84
2022/01/19 13:38:56;;;;;;;18.38;9.82;;;;;;;;;;5006793;28;20025;-85
2022/01/19 13:41:23;;;;;;;17.08;10.02;;;;;;;;;;5007394;28;20027;-86
2022/01/19 13:43:49;;;;;;;17.88;10.25;;;;;;;;;;5007776;28;20147;-84
2022/01/19 13:46:24;;;;;;;14.88;8.75;;;;;;;;;;5007627;28;20026;-84
2022/01/19 13:48:54;;;;;;;16.13;9.48;;;;;;;;;;5009249;28;20101;-84
2022/01/19 13:51:22;;;;;;;20.45;9.93;;;;;;;;;;5007878;28;20037;-84
2022/01/19 13:53:51;;;;;;;15.27;9.13;;;;;;;;;;5007684;28;20045;-84
2022/01/19 13:56:31;;;;;;;18.83;9.93;;;;;;;;;;5007340;28;20061;-86
2022/01/19 13:59:05;;;;;;;14.95;9.35;;;;;;;;;;5007797;28;20030;-85
2022/01/19 14:01:37;;;;;;;15.95;9.35;;;;;;;;;;5008270;28;20019;-85
2022/01/19 14:04:07;;;;;;;14.65;9.85;;;;;;;;;;5007952;28;20029;-85
2022/01/19 14:06:48;;;;;;;13.88;8.70;;;;;;;;;;5008350;28;20148;-85
2022/01/19 14:09:19;;;;;;;15.65;9.05;;;;;;;;;;5008686;28;20023;-85
2022/01/19 14:11:46;;;;;;;16.02;8.70;;;;;;;;;;5009613;28;20058;-85
2022/01/19 14:14:21;;;;;;;14.43;9.02;;;;;;;;;;5009927;28;20057;-84
2022/01/19 14:16:48;;;;;;;14.35;9.20;;;;;;;;;;5012565;28;20057;-85
2022/01/19 14:19:14;;;;;;;17.98;10.70;;;;;;;;;;5010417;28;20078;-85
2022/01/19 14:21:59;;;;;;;20.15;9.88;;;;;;;;;;5006137;28;20031;-84
2022/01/19 14:24:26;;;;;;;13.77;8.38;;;;;;;;;;5004739;28;20042;-84
2022/01/19 14:26:53;;;;;;;14.90;8.00;;;;;;;;;;5009029;28;20037;-84
2022/01/19 14:29:20;;;;;;;15.25;7.90;;;;;;;;;;5009012;28;20117;-84
2022/01/19 14:31:52;;;;;;;16.13;9.05;;;;;;;;;;5009890;28;20035;-84
2022/01/19 14:34:37;;;;;;;17.75;8.13;;;;;;;;;;5006508;28;20030;-84
2022/01/19 14:37:10;;;;;;;15.77;8.48;;;;;;;;;;5008265;28;20041;-84
2022/01/19 14:39:57;;;;;;;15.77;8.10;;;;;;;;;;5009164;28;20023;-83
2022/01/19 14:42:28;;;;;;;13.77;7.22;;;;;;;;;;5009125;28;20037;-85
2022/01/19 14:45:00;;;;;;;19.88;7.75;;;;;;;;;;5009194;28;20050;-85
2022/01/19 14:47:38;;;;;;;14.45;7.55;;;;;;;;;;5008368;28;20030;-84
2022/01/19 14:50:16;;;;;;;12.13;7.60;;;;;;;;;;5007513;28;20022;-84
2022/01/19 14:52:43;;;;;;;12.85;7.25;;;;;;;;;;4993570;28;20030;-84
2022/01/19 14:55:09;;;;;;;15.60;8.68;;;;;;;;;;5007817;28;20022;-84
2022/01/19 14:57:36;;;;;;;13.10;7.25;;;;;;;;;;5007793;28;20022;-85
2022/01/19 15:00:05;;;;;;;18.70;8.23;;;;;;;;;;5007360;28;20026;-84
2022/01/19 15:02:32;;;;;;;14.85;8.60;;;;;;;;;;5007792;28;20033;-84
2022/01/19 15:04:58;;;;;;;15.02;8.70;;;;;;;;;;5007294;28;20053;-84
2022/01/19 15:07:24;;;;;;;14.07;8.30;;;;;;;;;;5008215;28;20061;-85
2022/01/19 15:09:50;;;;;;;16.42;8.68;;;;;;;;;;4998565;28;20035;-84
2022/01/19 15:12:19;;;;;;;12.13;7.65;;;;;;;;;;4988795;28;20053;-84
2022/01/19 15:14:45;;;;;;;11.30;7.00;;;;;;;;;;5002184;28;20022;-84
2022/01/19 15:17:12;;;;;;;15.70;8.00;;;;;;;;;;5008198;28;20030;-84
2022/01/19 15:19:38;;;;;;;17.25;9.30;;;;;;;;;;5008273;28;20153;-84
2022/01/19 15:22:08;;;;;;;16.77;9.50;;;;;;;;;;5008569;28;20026;-85
2022/01/19 15:24:34;;;;;;;19.58;9.45;;;;;;;;;;5007995;28;20033;-84
2022/01/19 15:27:00;;;;;;;17.48;8.30;;;;;;;;;;5007030;28;20061;-84
2022/01/19 15:29:26;;;;;;;13.27;8.65;;;;;;;;;;5009459;28;20029;-84
2022/01/19 15:31:53;;;;;;;13.95;8.20;;;;;;;;;;5008271;28;20039;-85
2022/01/19 15:34:20;;;;;;;12.60;7.78;;;;;;;;;;5008918;28;20095;-85
2022/01/19 15:36:48;;;;;;;14.75;8.10;;;;;;;;;;5007218;28;20451;-85
2022/01/19 15:39:14;;;;;;;16.63;8.35;;;;;;;;;;5002882;28;20022;-85
2022/01/19 15:41:41;;;;;;;17.67;10.02;;;;;;;;;;5007967;28;20022;-85
2022/01/19 15:44:07;;;;;;;20.15;10.32;;;;;;;;;;5008316;28;20052;-85
2022/01/19 15:46:33;;;;;;;18.60;9.55;;;;;;;;;;5005045;28;20030;-84
2022/01/19 15:49:00;;;;;;;28.67;14.85;;;;;;;;;;5005411;28;20045;-84
2022/01/19 15:51:26;;;;;;;27.92;13.20;;;;;;;;;;5005832;28;20015;-84
2022/01/19 15:53:53;;;;;;;19.40;11.27;;;;;;;;;;5007626;28;20488;-84
2022/01/19 15:56:21;;;;;;;18.15;10.40;;;;;;;;;;5005792;28;20026;-84
2022/01/19 15:58:49;;;;;;;17.40;10.18;;;;;;;;;;5005736;28;20057;-84
2022/01/19 16:01:15;;;;;;;18.88;9.38;;;;;;;;;;4990979;28;20480;-86
2022/01/19 16:03:41;;;;;;;30.38;13.63;;;;;;;;;;5006754;28;20030;-85